Columbus, North Dakota
Current Conditions -  °F | °C
As of 3:00 PM on Thursday 18 Dec 2014 (Local Time) from CYEN Reporting Station
Light Snow Light Snow  
Wind Chill: 15°   Ceiling: 700
Heat Index: 23°   Visibility: 8mi
Dew Point: 19°   Wind: 7mph
Humidity: 86%   Direction: 200°SSW
Pressure: 29.94"   Gusts: NA
Location:  48.9°N, 102.78°W
Report Text: CYEN 182100Z 20006KT 8SM -SN OVC007 M05/M07 A2994 RMK SC8 FGSLP178
Loading
Personal Weather Stations






























Interactive Weather Map New forecast layout! Learn more

10-Day Weather Forecast

Advertisements
Track Severe Weather on mobile